메인 페이지
METAR-TAF:

METAR-TAF

공항 :

엘알토 국제공항

라파스, 볼리비아

위도: 16-31S, 경도: 068-11W, 고도: 4058m

현재 날씨관측

예보는 52분 전, 02:00시(UTC)에 발표되었습니다.
북북동7kt
온도 12°C
습도 30%
기압 1040 hPa
시정 10km 이상
고도 1500ft 상공 구름 조금
고도 1700ft 상공 구름 조금, 적란운.
고도 20000ft 상공 구름 많음

METAR: SLLP 130200Z 03007KT 9999 FEW015 FEW017CB BKN200 12/M05 Q1040

시각: 22:52 (02:52 UTC)

예보

예보는 4 시간 12분 전, 22:40시(UTC)에 발표되었습니다.
예보 대상 시간: 13일 00시부터 13일 24시까지 (UTC)
동북동7kt
시정 10km 이상
고도 1500ft 상공 구름 조금
전환 중
13일 12시부터 13일 14시까지 (UTC)
남동8kt
일시적
13일 18시부터 13일 22시까지 (UTC)
남동15kt, 순간 최대 풍속 25kt
고도 2300ft 상공 구름 조금
고도 2500ft 상공 구름 조금, 적란운.

TAF: SLLP 122240Z 1300/1324 06007KT 9999 FEW015 TX20/1320Z TN02/1310Z BECMG 1312/1314 13008KT TEMPO 1318/1322 13015G25KT FEW023 FEW025CB

4,000개 이상의 공항 관측 자료 및 예보 (METAR 및 TAF 보고).

지도상에서 검색 가능한 기상관측소가 노란 점과 빨간 점으로 표시되어 있습니다.

기상관측소 명을 보려면 표시 위로 마우스를 이동하세요.

날씨 관측과 예보를 보려면 클릭하세요.

지도 변경 : 확대하려면 엑스 표시가 있는 녹색 버튼, 축소하려면 빼기 표시가 있는 녹색 버튼, 다음 페이지의 지도를 보려면 녹색 화살표를 클릭하세요.


METAR-TAF: